DLH1LU EDDF-LOWI
Flight info
| Callsign | DLH1LU |
|---|---|
| Flight time | 0h 47m |
| Altitude | 29000 |
| Route | SULUS7S/18 SULUS Z650 NIKUS M736 RDG/N0458F280 M736 DOSEL/N0452F270 M736 TULSI TULSI3A |
| Aircraft | A319/M-SDE3FGHIRWY/LB1 |
Departure
| Time | 2026-05-06 20:26 |
|---|---|
| Airport | Frankfurt Main Airport (EDDF) |
Arrival
| Time | 2026-05-06 21:13 |
|---|---|
| Airport | Innsbruck Airport (LOWI) |
| Time | Latitude | Longitude | Altitude | Speed | Heading |
|---|---|---|---|---|---|
| 2026-05-06 19:56 | 50.02949 | 8.57755 | 356 ft | 0 kts | 25° |
| 2026-05-06 20:16 | 50.02933 | 8.57744 | 362 ft | 4 kts | 25° |
| 2026-05-06 20:16 | 50.02911 | 8.57728 | 359 ft | 2 kts | 24° |
| 2026-05-06 20:16 | 50.02891 | 8.57723 | 359 ft | 4 kts | 307° |
| 2026-05-06 20:17 | 50.02881 | 8.57761 | 355 ft | 3 kts | 272° |
| 2026-05-06 20:17 | 50.02882 | 8.57743 | 359 ft | 4 kts | 272° |
| 2026-05-06 20:17 | 50.02883 | 8.57701 | 357 ft | 4 kts | 272° |
| 2026-05-06 20:17 | 50.02883 | 8.57659 | 353 ft | 4 kts | 272° |
| 2026-05-06 20:18 | 50.02884 | 8.57632 | 353 ft | 0 kts | 272° |
| 2026-05-06 20:19 | 50.02884 | 8.57613 | 353 ft | 4 kts | 272° |
| 2026-05-06 20:19 | 50.02888 | 8.57546 | 356 ft | 8 kts | 278° |
| 2026-05-06 20:19 | 50.02919 | 8.57452 | 360 ft | 12 kts | 295° |
| 2026-05-06 20:20 | 50.02959 | 8.57322 | 359 ft | 15 kts | 296° |
| 2026-05-06 20:20 | 50.03004 | 8.57171 | 357 ft | 16 kts | 295° |
| 2026-05-06 20:20 | 50.03055 | 8.57000 | 355 ft | 19 kts | 295° |
| 2026-05-06 20:20 | 50.03163 | 8.56894 | 353 ft | 20 kts | 340° |
| 2026-05-06 20:21 | 50.03269 | 8.56770 | 353 ft | 22 kts | 264° |
| 2026-05-06 20:21 | 50.03214 | 8.56530 | 353 ft | 25 kts | 250° |
| 2026-05-06 20:21 | 50.03152 | 8.56272 | 352 ft | 27 kts | 249° |
| 2026-05-06 20:21 | 50.03084 | 8.55993 | 349 ft | 29 kts | 250° |
| 2026-05-06 20:22 | 50.03012 | 8.55686 | 348 ft | 31 kts | 250° |
| 2026-05-06 20:22 | 50.02937 | 8.55365 | 349 ft | 32 kts | 249° |
| 2026-05-06 20:22 | 50.02855 | 8.55030 | 345 ft | 34 kts | 249° |
| 2026-05-06 20:22 | 50.02770 | 8.54681 | 340 ft | 36 kts | 250° |
| 2026-05-06 20:23 | 50.02684 | 8.54311 | 336 ft | 37 kts | 252° |
| 2026-05-06 20:23 | 50.02597 | 8.53907 | 331 ft | 41 kts | 249° |
| 2026-05-06 20:23 | 50.02496 | 8.53487 | 334 ft | 41 kts | 250° |
| 2026-05-06 20:23 | 50.02399 | 8.53074 | 335 ft | 40 kts | 250° |
| 2026-05-06 20:24 | 50.02312 | 8.52708 | 335 ft | 25 kts | 250° |
| 2026-05-06 20:24 | 50.02255 | 8.52610 | 334 ft | 8 kts | 172° |
| 2026-05-06 20:24 | 50.02232 | 8.52607 | 335 ft | 0 kts | 182° |
| 2026-05-06 20:25 | 50.02227 | 8.52607 | 335 ft | 8 kts | 182° |
| 2026-05-06 20:25 | 50.01872 | 8.52609 | 334 ft | 90 kts | 180° |
| 2026-05-06 20:25 | 50.01015 | 8.52617 | 332 ft | 153 kts | 180° |
| 2026-05-06 20:25 | 49.99874 | 8.52613 | 775 ft | 164 kts | 182° |
| 2026-05-06 20:26 | 49.98740 | 8.52614 | 1497 ft | 165 kts | 182° |
| 2026-05-06 20:26 | 49.97548 | 8.52809 | 1938 ft | 186 kts | 165° |
| 2026-05-06 20:26 | 49.96354 | 8.53869 | 2267 ft | 213 kts | 137° |
| 2026-05-06 20:26 | 49.95468 | 8.55857 | 2724 ft | 234 kts | 118° |
| 2026-05-06 20:27 | 49.94682 | 8.58075 | 3574 ft | 238 kts | 119° |
| 2026-05-06 20:27 | 49.94094 | 8.60514 | 4449 ft | 247 kts | 102° |
| 2026-05-06 20:27 | 49.93922 | 8.63309 | 4943 ft | 272 kts | 94° |
| 2026-05-06 20:27 | 49.93758 | 8.66293 | 5729 ft | 281 kts | 102° |
| 2026-05-06 20:28 | 49.93114 | 8.69115 | 6621 ft | 283 kts | 121° |
| 2026-05-06 20:28 | 49.91902 | 8.71523 | 7527 ft | 283 kts | 141° |
| 2026-05-06 20:28 | 49.90321 | 8.73353 | 8449 ft | 285 kts | 148° |
| 2026-05-06 20:28 | 49.88767 | 8.75328 | 9362 ft | 292 kts | 136° |
| 2026-05-06 20:29 | 49.87558 | 8.77854 | 10171 ft | 301 kts | 122° |
| 2026-05-06 20:29 | 49.86482 | 8.80808 | 10507 ft | 325 kts | 121° |
| 2026-05-06 20:29 | 49.85339 | 8.83987 | 10776 ft | 349 kts | 120° |
| 2026-05-06 20:29 | 49.84137 | 8.87335 | 11082 ft | 367 kts | 120° |
| 2026-05-06 20:30 | 49.82878 | 8.90842 | 11745 ft | 374 kts | 120° |
| 2026-05-06 20:30 | 49.80308 | 8.97932 | 13276 ft | 380 kts | 120° |
| 2026-05-06 20:30 | 49.79012 | 9.01480 | 13996 ft | 383 kts | 120° |
| 2026-05-06 20:31 | 49.77692 | 9.05087 | 14675 ft | 386 kts | 121° |
| 2026-05-06 20:31 | 49.76455 | 9.08797 | 15336 ft | 390 kts | 114° |
| 2026-05-06 20:31 | 49.75624 | 9.12818 | 16004 ft | 395 kts | 104° |
| 2026-05-06 20:31 | 49.74987 | 9.16908 | 16662 ft | 398 kts | 105° |
| 2026-05-06 20:32 | 49.74322 | 9.21082 | 17318 ft | 401 kts | 105° |
| 2026-05-06 20:32 | 49.73640 | 9.25283 | 17960 ft | 404 kts | 105° |
| 2026-05-06 20:32 | 49.72943 | 9.29532 | 18529 ft | 408 kts | 105° |
| 2026-05-06 20:32 | 49.72251 | 9.33741 | 19066 ft | 410 kts | 105° |
| 2026-05-06 20:33 | 49.71547 | 9.38039 | 19603 ft | 413 kts | 106° |
| 2026-05-06 20:33 | 49.70840 | 9.42360 | 20136 ft | 415 kts | 106° |
| 2026-05-06 20:33 | 49.70127 | 9.46713 | 20664 ft | 418 kts | 106° |
| 2026-05-06 20:33 | 49.69418 | 9.51038 | 21171 ft | 420 kts | 106° |
| 2026-05-06 20:34 | 49.68693 | 9.55432 | 21680 ft | 422 kts | 106° |
| 2026-05-06 20:34 | 49.67967 | 9.59848 | 22166 ft | 425 kts | 105° |
| 2026-05-06 20:34 | 49.67507 | 9.64389 | 22648 ft | 430 kts | 96° |
| 2026-05-06 20:34 | 49.67526 | 9.68978 | 23128 ft | 436 kts | 87° |
| 2026-05-06 20:35 | 49.68040 | 9.73622 | 23564 ft | 441 kts | 78° |
| 2026-05-06 20:35 | 49.68860 | 9.78210 | 23944 ft | 444 kts | 77° |
| 2026-05-06 20:35 | 49.69673 | 9.82844 | 24310 ft | 446 kts | 79° |
| 2026-05-06 20:35 | 49.70113 | 9.87532 | 24679 ft | 444 kts | 90° |
| 2026-05-06 20:36 | 49.70009 | 9.92304 | 25049 ft | 442 kts | 101° |
| 2026-05-06 20:36 | 49.69377 | 9.96943 | 25399 ft | 440 kts | 110° |
| 2026-05-06 20:36 | 49.68256 | 10.01271 | 25763 ft | 437 kts | 121° |
| 2026-05-06 20:36 | 49.66660 | 10.05253 | 26131 ft | 434 kts | 130° |
| 2026-05-06 20:37 | 49.64842 | 10.08994 | 26480 ft | 436 kts | 130° |
| 2026-05-06 20:37 | 49.63022 | 10.12751 | 26839 ft | 437 kts | 130° |
| 2026-05-06 20:37 | 49.61201 | 10.16520 | 27187 ft | 439 kts | 130° |
| 2026-05-06 20:37 | 49.59372 | 10.20298 | 27519 ft | 441 kts | 130° |
| 2026-05-06 20:38 | 49.57551 | 10.24047 | 27839 ft | 443 kts | 130° |
| 2026-05-06 20:38 | 49.55693 | 10.27861 | 28166 ft | 444 kts | 130° |
| 2026-05-06 20:38 | 49.53836 | 10.31674 | 28631 ft | 443 kts | 130° |
| 2026-05-06 20:38 | 49.51983 | 10.35480 | 28823 ft | 443 kts | 130° |
| 2026-05-06 20:39 | 49.50157 | 10.39220 | 28853 ft | 442 kts | 130° |
| 2026-05-06 20:39 | 49.46445 | 10.46792 | 28851 ft | 442 kts | 131° |
| 2026-05-06 20:40 | 49.42754 | 10.54301 | 28851 ft | 443 kts | 131° |
| 2026-05-06 20:40 | 49.39028 | 10.61864 | 28867 ft | 443 kts | 131° |
| 2026-05-06 20:41 | 49.35319 | 10.69369 | 28867 ft | 444 kts | 131° |
| 2026-05-06 20:41 | 49.31575 | 10.76917 | 28865 ft | 444 kts | 131° |
| 2026-05-06 20:42 | 49.27842 | 10.84428 | 28869 ft | 445 kts | 131° |
| 2026-05-06 20:42 | 49.24075 | 10.91975 | 28868 ft | 446 kts | 131° |
| 2026-05-06 20:43 | 49.20937 | 10.98256 | 28867 ft | 447 kts | 131° |
| 2026-05-06 20:43 | 49.17171 | 11.05782 | 28861 ft | 447 kts | 131° |
| 2026-05-06 20:44 | 49.12754 | 11.14567 | 28855 ft | 448 kts | 131° |
| 2026-05-06 20:44 | 49.09586 | 11.20860 | 28861 ft | 448 kts | 131° |
| 2026-05-06 20:45 | 49.05767 | 11.28433 | 28861 ft | 449 kts | 131° |
| 2026-05-06 20:45 | 49.01972 | 11.35925 | 28868 ft | 449 kts | 131° |
| 2026-05-06 20:46 | 48.98135 | 11.43476 | 28872 ft | 450 kts | 131° |
| 2026-05-06 20:46 | 48.94306 | 11.50973 | 28880 ft | 451 kts | 131° |
| 2026-05-06 20:47 | 48.90444 | 11.58527 | 28876 ft | 452 kts | 131° |
| 2026-05-06 20:47 | 48.86596 | 11.66052 | 28883 ft | 450 kts | 131° |
| 2026-05-06 20:48 | 48.82766 | 11.73521 | 28884 ft | 450 kts | 131° |
| 2026-05-06 20:48 | 48.78893 | 11.81027 | 28882 ft | 451 kts | 131° |
| 2026-05-06 20:49 | 48.76716 | 11.85241 | 28895 ft | 452 kts | 131° |
| 2026-05-06 20:49 | 48.72827 | 11.92756 | 28878 ft | 453 kts | 132° |
| 2026-05-06 20:50 | 48.68960 | 12.00207 | 28864 ft | 453 kts | 132° |
| 2026-05-06 20:50 | 48.65048 | 12.07729 | 28861 ft | 453 kts | 132° |
| 2026-05-06 20:51 | 48.61163 | 12.15177 | 28856 ft | 454 kts | 132° |
| 2026-05-06 20:51 | 48.57238 | 12.22676 | 28856 ft | 455 kts | 132° |
| 2026-05-06 20:52 | 48.53323 | 12.30129 | 28857 ft | 456 kts | 133° |
| 2026-05-06 20:52 | 48.49133 | 12.37245 | 28850 ft | 448 kts | 147° |
| 2026-05-06 20:52 | 48.46454 | 12.39555 | 28860 ft | 439 kts | 162° |
| 2026-05-06 20:53 | 48.43525 | 12.40661 | 28862 ft | 431 kts | 178° |
| 2026-05-06 20:53 | 48.40588 | 12.40568 | 28869 ft | 425 kts | 192° |
| 2026-05-06 20:53 | 48.37759 | 12.39334 | 28874 ft | 421 kts | 205° |
| 2026-05-06 20:53 | 48.35251 | 12.37068 | 28876 ft | 420 kts | 218° |
| 2026-05-06 20:54 | 48.33041 | 12.34277 | 28883 ft | 420 kts | 220° |
| 2026-05-06 20:54 | 48.28585 | 12.28600 | 28892 ft | 417 kts | 220° |
| 2026-05-06 20:54 | 48.26415 | 12.25842 | 28906 ft | 398 kts | 220° |
| 2026-05-06 20:55 | 48.24375 | 12.23254 | 28913 ft | 381 kts | 220° |
| 2026-05-06 20:55 | 48.20377 | 12.18195 | 28909 ft | 371 kts | 220° |
| 2026-05-06 20:56 | 48.16453 | 12.13232 | 28697 ft | 373 kts | 220° |
| 2026-05-06 20:56 | 48.14396 | 12.10637 | 27903 ft | 392 kts | 220° |
| 2026-05-06 20:56 | 48.12328 | 12.08029 | 27111 ft | 392 kts | 220° |
| 2026-05-06 20:56 | 48.10250 | 12.05411 | 26423 ft | 390 kts | 220° |
| 2026-05-06 20:57 | 48.08168 | 12.02791 | 25586 ft | 391 kts | 219° |
| 2026-05-06 20:57 | 48.06073 | 12.00163 | 24677 ft | 395 kts | 219° |
| 2026-05-06 20:57 | 48.03949 | 11.97505 | 23742 ft | 399 kts | 219° |
| 2026-05-06 20:57 | 48.01828 | 11.94853 | 22827 ft | 401 kts | 219° |
| 2026-05-06 20:58 | 47.99699 | 11.92190 | 22131 ft | 397 kts | 219° |
| 2026-05-06 20:58 | 47.97592 | 11.89556 | 21469 ft | 392 kts | 219° |
| 2026-05-06 20:58 | 47.95538 | 11.86990 | 20828 ft | 388 kts | 219° |
| 2026-05-06 20:58 | 47.93466 | 11.84429 | 20212 ft | 385 kts | 217° |
| 2026-05-06 20:59 | 47.91226 | 11.82296 | 19637 ft | 380 kts | 207° |
| 2026-05-06 20:59 | 47.88789 | 11.80781 | 19063 ft | 377 kts | 198° |
| 2026-05-06 20:59 | 47.86230 | 11.79912 | 18527 ft | 375 kts | 189° |
| 2026-05-06 20:59 | 47.83662 | 11.79646 | 18011 ft | 373 kts | 183° |
| 2026-05-06 21:00 | 47.81064 | 11.79508 | 17403 ft | 370 kts | 184° |
| 2026-05-06 21:00 | 47.78500 | 11.79364 | 16492 ft | 369 kts | 184° |
| 2026-05-06 21:00 | 47.75943 | 11.79215 | 15525 ft | 372 kts | 184° |
| 2026-05-06 21:00 | 47.73362 | 11.79066 | 14689 ft | 369 kts | 185° |
| 2026-05-06 21:01 | 47.70757 | 11.79186 | 13409 ft | 381 kts | 176° |
| 2026-05-06 21:01 | 47.68123 | 11.80039 | 12102 ft | 391 kts | 164° |
| 2026-05-06 21:01 | 47.65610 | 11.81468 | 11631 ft | 376 kts | 161° |
| 2026-05-06 21:01 | 47.63264 | 11.82812 | 11497 ft | 354 kts | 162° |
| 2026-05-06 21:02 | 47.61030 | 11.84066 | 11357 ft | 330 kts | 162° |
| 2026-05-06 21:02 | 47.58944 | 11.85223 | 11235 ft | 311 kts | 162° |
| 2026-05-06 21:02 | 47.56995 | 11.86299 | 11075 ft | 295 kts | 162° |
| 2026-05-06 21:02 | 47.55103 | 11.87343 | 10797 ft | 284 kts | 162° |
| 2026-05-06 21:03 | 47.53295 | 11.88344 | 10678 ft | 270 kts | 162° |
| 2026-05-06 21:03 | 47.51559 | 11.89305 | 10243 ft | 269 kts | 162° |
| 2026-05-06 21:03 | 47.49792 | 11.90283 | 9940 ft | 273 kts | 162° |
| 2026-05-06 21:03 | 47.48025 | 11.91261 | 9815 ft | 275 kts | 162° |
| 2026-05-06 21:04 | 47.46226 | 11.92259 | 9680 ft | 276 kts | 162° |
| 2026-05-06 21:04 | 47.44372 | 11.92931 | 9546 ft | 273 kts | 176° |
| 2026-05-06 21:04 | 47.42550 | 11.92812 | 9485 ft | 258 kts | 192° |
| 2026-05-06 21:04 | 47.40899 | 11.92022 | 9491 ft | 243 kts | 206° |
| 2026-05-06 21:05 | 47.39446 | 11.90780 | 9489 ft | 240 kts | 211° |
| 2026-05-06 21:05 | 47.38017 | 11.89517 | 9488 ft | 239 kts | 211° |
| 2026-05-06 21:05 | 47.36582 | 11.88256 | 9489 ft | 240 kts | 210° |
| 2026-05-06 21:05 | 47.35146 | 11.86993 | 9487 ft | 240 kts | 210° |
| 2026-05-06 21:06 | 47.33867 | 11.85478 | 9483 ft | 241 kts | 229° |
| 2026-05-06 21:06 | 47.33044 | 11.83347 | 9486 ft | 237 kts | 249° |
| 2026-05-06 21:06 | 47.32552 | 11.81090 | 9449 ft | 230 kts | 247° |
| 2026-05-06 21:06 | 47.32049 | 11.78852 | 9167 ft | 230 kts | 252° |
| 2026-05-06 21:07 | 47.31690 | 11.76561 | 8801 ft | 227 kts | 256° |
| 2026-05-06 21:07 | 47.31390 | 11.74347 | 8426 ft | 220 kts | 256° |
| 2026-05-06 21:07 | 47.31100 | 11.72192 | 8065 ft | 209 kts | 256° |
| 2026-05-06 21:07 | 47.30821 | 11.70135 | 7711 ft | 199 kts | 256° |
| 2026-05-06 21:08 | 47.30557 | 11.68194 | 7398 ft | 188 kts | 256° |
| 2026-05-06 21:08 | 47.30302 | 11.66327 | 7090 ft | 186 kts | 256° |
| 2026-05-06 21:08 | 47.30047 | 11.64456 | 6791 ft | 186 kts | 256° |
| 2026-05-06 21:08 | 47.29791 | 11.62584 | 6491 ft | 185 kts | 256° |
| 2026-05-06 21:09 | 47.29544 | 11.60772 | 6203 ft | 177 kts | 256° |
| 2026-05-06 21:09 | 47.29311 | 11.59065 | 5909 ft | 165 kts | 256° |
| 2026-05-06 21:09 | 47.29084 | 11.57417 | 5619 ft | 163 kts | 257° |
| 2026-05-06 21:09 | 47.28860 | 11.55785 | 5334 ft | 161 kts | 257° |
| 2026-05-06 21:10 | 47.28649 | 11.54247 | 5057 ft | 149 kts | 256° |
| 2026-05-06 21:10 | 47.28446 | 11.52767 | 4813 ft | 145 kts | 255° |
| 2026-05-06 21:10 | 47.28245 | 11.51313 | 4584 ft | 144 kts | 255° |
| 2026-05-06 21:10 | 47.28047 | 11.49870 | 4357 ft | 143 kts | 257° |
| 2026-05-06 21:11 | 47.27849 | 11.48439 | 4128 ft | 141 kts | 257° |
| 2026-05-06 21:11 | 47.27655 | 11.47028 | 3898 ft | 140 kts | 258° |
| 2026-05-06 21:11 | 47.27464 | 11.45647 | 3667 ft | 139 kts | 258° |
| 2026-05-06 21:11 | 47.27271 | 11.44253 | 3437 ft | 138 kts | 258° |
| 2026-05-06 21:12 | 47.27078 | 11.42868 | 3193 ft | 138 kts | 258° |
| 2026-05-06 21:12 | 47.26883 | 11.41503 | 2902 ft | 136 kts | 258° |
| 2026-05-06 21:12 | 47.26691 | 11.40134 | 2686 ft | 137 kts | 258° |
| 2026-05-06 21:12 | 47.26505 | 11.38771 | 2434 ft | 135 kts | 261° |
| 2026-05-06 21:13 | 47.26348 | 11.37415 | 2205 ft | 133 kts | 262° |
| 2026-05-06 21:13 | 47.26203 | 11.36081 | 1996 ft | 133 kts | 263° |
| 2026-05-06 21:13 | 47.26071 | 11.34807 | 1908 ft | 103 kts | 260° |
| 2026-05-06 21:13 | 47.25999 | 11.34199 | 1912 ft | 25 kts | 260° |
| 2026-05-06 21:14 | 47.25971 | 11.33956 | 1916 ft | 25 kts | 260° |
| 2026-05-06 21:14 | 47.25934 | 11.33707 | 1917 ft | 19 kts | 220° |
| 2026-05-06 21:14 | 47.25858 | 11.33778 | 1918 ft | 17 kts | 124° |
| 2026-05-06 21:14 | 47.25782 | 11.33953 | 1905 ft | 24 kts | 113° |
| 2026-05-06 21:15 | 47.25777 | 11.34117 | 1905 ft | 5 kts | 81° |
| 2026-05-06 21:15 | 47.25785 | 11.34188 | 1903 ft | 2 kts | 81° |
| 2026-05-06 21:15 | 47.25784 | 11.34181 | 1899 ft | 13 kts | 80° |
| 2026-05-06 21:16 | 47.25809 | 11.34411 | 1904 ft | 31 kts | 81° |
| 2026-05-06 21:16 | 47.25835 | 11.34651 | 1904 ft | 23 kts | 81° |
| 2026-05-06 21:16 | 47.25860 | 11.34889 | 1908 ft | 24 kts | 81° |
| 2026-05-06 21:16 | 47.25873 | 11.35090 | 1902 ft | 8 kts | 120° |
| 2026-05-06 21:17 | 47.25833 | 11.35109 | 1898 ft | 2 kts | 173° |
| 2026-05-06 21:17 | 47.25826 | 11.35110 | 1901 ft | 0 kts | 172° |